Time;durP1;ratioP1;P1;durP2;ratioP2;P2;SDS_P1;SDS_P2;PMS_P1;PMS_P2;Temp;Humidity;BMP_temperature;BMP_pressure;BME280_temperature;BME280_humidity;BME280_pressure;Samples;Min_cycle;Max_cycle;Signal;HPM_P1;HPM_P2
2021/09/03 00:00:58;;;;;;;27.90;26.10;;;14.50;88.90;;;;;;4998155;28;20469;-69
2021/09/03 00:03:25;;;;;;;27.53;25.73;;;14.50;88.70;;;;;;4994542;28;20817;-69
2021/09/03 00:05:52;;;;;;;27.20;25.40;;;14.40;88.80;;;;;;4998425;28;20469;-69
2021/09/03 00:08:19;;;;;;;27.20;25.50;;;14.40;88.90;;;;;;5005186;28;20472;-69
2021/09/03 00:10:47;;;;;;;27.67;25.70;;;14.30;89.00;;;;;;4998457;28;20463;-69
2021/09/03 00:13:14;;;;;;;27.70;25.57;;;14.30;89.20;;;;;;5001897;28;20456;-68
2021/09/03 00:15:41;;;;;;;26.97;25.27;;;14.30;89.30;;;;;;5003505;28;20459;-69
2021/09/03 00:18:08;;;;;;;27.43;25.63;;;14.20;89.40;;;;;;5002997;28;20986;-69
2021/09/03 00:20:35;;;;;;;28.40;26.50;;;14.20;89.50;;;;;;5007055;28;20467;-69
2021/09/03 00:23:02;;;;;;;28.43;26.53;;;14.10;89.60;;;;;;5002758;28;20561;-68
2021/09/03 00:25:29;;;;;;;29.57;27.47;;;14.10;89.80;;;;;;5001446;28;20803;-69
2021/09/03 00:27:57;;;;;;;27.67;25.93;;;14.10;89.50;;;;;;5000399;28;20468;-69
2021/09/03 00:30:24;;;;;;;28.33;26.40;;;14.20;89.30;;;;;;4998155;28;20518;-69
2021/09/03 00:32:51;;;;;;;28.23;26.00;;;14.10;89.30;;;;;;5010016;28;20463;-69
2021/09/03 00:35:18;;;;;;;27.10;25.40;;;14.10;89.40;;;;;;5009823;28;20950;-69
2021/09/03 00:37:45;;;;;;;27.17;25.47;;;14.10;89.70;;;;;;5001163;28;20477;-69
2021/09/03 00:40:12;;;;;;;27.73;25.77;;;14.10;89.60;;;;;;5004466;28;20975;-69
2021/09/03 00:42:39;;;;;;;27.50;25.50;;;14.00;89.60;;;;;;5006408;28;20515;-69
2021/09/03 00:45:09;;;;;;;28.17;26.27;;;14.10;89.50;;;;;;4994908;28;20980;-69
2021/09/03 00:47:35;;;;;;;26.97;25.27;;;14.00;89.60;;;;;;5003533;28;20460;-69
2021/09/03 00:50:02;;;;;;;27.03;25.40;;;14.00;89.70;;;;;;4998526;28;20480;-69
2021/09/03 00:52:29;;;;;;;27.83;26.13;;;13.90;89.80;;;;;;5003372;28;20461;-69
2021/09/03 00:54:59;;;;;;;28.60;26.70;;;14.00;89.70;;;;;;5007727;28;20457;-69
2021/09/03 00:57:26;;;;;;;26.13;24.53;;;14.00;89.60;;;;;;4994882;28;20481;-69
2021/09/03 00:59:55;;;;;;;27.10;25.33;;;13.90;89.60;;;;;;5003036;28;20495;-69
2021/09/03 01:02:25;;;;;;;28.03;26.13;;;13.80;89.70;;;;;;5008400;28;20511;-69
2021/09/03 01:04:52;;;;;;;27.80;25.87;;;13.80;90.00;;;;;;5005752;28;20464;-69
2021/09/03 01:07:19;;;;;;;27.30;25.60;;;13.80;90.20;;;;;;5008647;28;20471;-69
2021/09/03 01:09:46;;;;;;;27.47;25.80;;;13.80;90.20;;;;;;5007269;28;20492;-69
2021/09/03 01:12:13;;;;;;;28.50;26.60;;;13.80;90.10;;;;;;5009809;28;20453;-68
2021/09/03 01:14:40;;;;;;;28.93;26.83;;;13.70;90.10;;;;;;5004412;28;20796;-68
2021/09/03 01:17:07;;;;;;;26.67;25.07;;;13.70;90.10;;;;;;5006847;28;20544;-68
2021/09/03 01:19:36;;;;;;;28.70;26.60;;;13.70;90.30;;;;;;5008891;28;20480;-68
2021/09/03 01:22:04;;;;;;;28.10;26.00;;;13.60;90.40;;;;;;4997538;28;20487;-68
2021/09/03 01:24:31;;;;;;;28.10;26.23;;;13.60;90.50;;;;;;5003688;28;20490;-68
2021/09/03 01:26:58;;;;;;;27.30;25.60;;;13.60;90.40;;;;;;5000292;28;20457;-68
2021/09/03 01:29:25;;;;;;;28.07;26.00;;;13.60;90.50;;;;;;5001323;28;20480;-68
2021/09/03 01:31:52;;;;;;;27.40;25.50;;;13.60;90.50;;;;;;5005277;28;20465;-67
2021/09/03 01:34:19;;;;;;;28.13;26.23;;;13.50;90.50;;;;;;4999185;28;21178;-68
2021/09/03 01:36:45;;;;;;;28.17;26.47;;;13.60;90.50;;;;;;4996532;28;20457;-68
2021/09/03 01:39:14;;;;;;;28.70;26.80;;;13.50;90.60;;;;;;4999694;28;20477;-68
2021/09/03 01:41:41;;;;;;;29.23;26.90;;;13.50;90.50;;;;;;5002476;28;21215;-68
2021/09/03 01:44:10;;;;;;;28.30;26.50;;;13.50;90.50;;;;;;5003461;28;20457;-68
2021/09/03 01:46:37;;;;;;;28.20;26.40;;;13.50;90.50;;;;;;5004586;28;20484;-68
2021/09/03 01:49:04;;;;;;;29.30;27.20;;;13.40;90.80;;;;;;5009893;28;20487;-68
2021/09/03 01:51:31;;;;;;;27.93;26.07;;;13.40;90.90;;;;;;4994426;28;20466;-68
2021/09/03 01:53:58;;;;;;;27.97;26.03;;;13.30;90.90;;;;;;4998826;28;20458;-68
2021/09/03 01:56:27;;;;;;;27.63;25.83;;;13.40;90.90;;;;;;5000543;28;20990;-68
2021/09/03 01:58:53;;;;;;;28.80;26.60;;;13.40;90.80;;;;;;5011012;28;20487;-68
2021/09/03 02:01:20;;;;;;;27.40;25.60;;;13.40;90.70;;;;;;5006363;28;20547;-68
2021/09/03 02:03:47;;;;;;;27.10;25.40;;;13.30;90.80;;;;;;4994350;28;20480;-68
2021/09/03 02:06:14;;;;;;;28.33;26.43;;;13.30;90.70;;;;;;5001071;28;21156;-68
2021/09/03 02:08:41;;;;;;;29.20;27.20;;;13.30;90.60;;;;;;4998220;28;20461;-68
2021/09/03 02:11:11;;;;;;;28.47;26.47;;;13.30;90.70;;;;;;5002909;28;20494;-68
2021/09/03 02:13:40;;;;;;;28.13;26.23;;;13.30;90.60;;;;;;5000673;28;21049;-69
2021/09/03 02:16:06;;;;;;;26.43;24.77;;;13.30;90.60;;;;;;5007612;28;20461;-68
2021/09/03 02:18:33;;;;;;;28.27;26.27;;;13.20;90.90;;;;;;5008811;28;20480;-68
2021/09/03 02:21:01;;;;;;;28.47;26.47;;;13.20;90.90;;;;;;5007949;28;20464;-68
2021/09/03 02:23:28;;;;;;;27.10;25.30;;;13.10;91.10;;;;;;4997703;28;20548;-68
2021/09/03 02:25:55;;;;;;;29.53;27.20;;;13.20;91.00;;;;;;4999095;28;20453;-68
2021/09/03 02:28:22;;;;;;;27.83;25.83;;;13.10;90.70;;;;;;4995926;28;20483;-69
2021/09/03 02:30:50;;;;;;;27.13;25.53;;;13.10;90.90;;;;;;5006809;28;20460;-69
2021/09/03 02:33:17;;;;;;;27.30;25.40;;;13.00;90.90;;;;;;5005706;28;20462;-69
2021/09/03 02:35:44;;;;;;;28.00;26.20;;;13.00;91.00;;;;;;4999613;28;20453;-69
2021/09/03 02:38:12;;;;;;;29.87;27.57;;;13.00;91.10;;;;;;5008218;28;20485;-69
2021/09/03 02:40:39;;;;;;;27.43;25.53;;;13.00;91.20;;;;;;4991669;28;20490;-69
2021/09/03 02:43:06;;;;;;;27.10;25.20;;;12.90;91.20;;;;;;4991011;28;20974;-68
2021/09/03 02:45:33;;;;;;;26.07;24.37;;;12.90;91.30;;;;;;5001306;28;20470;-68
2021/09/03 02:48:01;;;;;;;26.33;24.63;;;12.90;91.20;;;;;;5001270;28;21398;-68
2021/09/03 02:50:29;;;;;;;26.67;24.70;;;12.90;91.00;;;;;;4991912;28;20949;-69
2021/09/03 02:52:58;;;;;;;27.37;25.37;;;12.90;90.90;;;;;;4996218;28;20461;-68
2021/09/03 02:55:25;;;;;;;29.50;27.53;;;12.90;91.00;;;;;;4990749;28;20462;-69
2021/09/03 02:57:52;;;;;;;28.23;26.23;;;12.80;91.10;;;;;;4997252;28;20485;-69
2021/09/03 03:00:19;;;;;;;28.97;26.97;;;12.80;91.20;;;;;;4994590;28;20548;-69
2021/09/03 03:02:46;;;;;;;27.27;25.37;;;12.80;91.30;;;;;;5000391;28;20523;-69
2021/09/03 03:05:15;;;;;;;28.30;26.40;;;12.80;91.30;;;;;;5001624;28;20461;-69
2021/09/03 03:07:42;;;;;;;27.40;25.43;;;12.90;90.90;;;;;;5008173;28;20476;-69
2021/09/03 03:10:10;;;;;;;27.97;26.17;;;12.80;90.90;;;;;;5004785;28;20540;-68
2021/09/03 03:12:37;;;;;;;28.40;26.60;;;12.80;91.00;;;;;;5003400;28;20548;-67
2021/09/03 03:15:05;;;;;;;28.47;26.57;;;12.80;91.20;;;;;;5000277;28;20560;-68
2021/09/03 03:17:32;;;;;;;29.27;27.37;;;12.70;91.40;;;;;;4999452;28;20461;-68
2021/09/03 03:19:58;;;;;;;27.20;25.10;;;12.70;91.60;;;;;;5004826;28;20669;-68
2021/09/03 03:22:27;;;;;;;28.20;26.30;;;12.70;91.50;;;;;;5004033;28;20463;-68
2021/09/03 03:24:54;;;;;;;27.20;25.50;;;12.70;91.40;;;;;;4991696;28;22352;-69
2021/09/03 03:27:21;;;;;;;29.70;27.40;;;12.70;91.30;;;;;;5003700;28;20467;-69
2021/09/03 03:29:47;;;;;;;27.60;25.90;;;12.70;91.20;;;;;;5006627;28;20473;-69
2021/09/03 03:32:15;;;;;;;31.77;29.70;;;12.60;91.20;;;;;;5003869;28;20472;-69
2021/09/03 03:34:42;;;;;;;27.77;25.67;;;12.60;91.40;;;;;;4998910;28;20461;-69
2021/09/03 03:37:09;;;;;;;30.10;28.07;;;12.50;91.60;;;;;;4999653;28;20480;-69
2021/09/03 03:39:37;;;;;;;27.93;25.93;;;12.50;91.70;;;;;;4993181;28;20477;-69
2021/09/03 03:42:04;;;;;;;32.17;30.07;;;12.50;91.60;;;;;;5004575;28;20452;-69
2021/09/03 03:44:31;;;;;;;29.37;27.50;;;12.60;91.30;;;;;;4996188;28;20458;-69
2021/09/03 03:46:58;;;;;;;30.40;28.43;;;12.50;91.50;;;;;;4996121;28;20530;-69
2021/09/03 03:49:25;;;;;;;27.33;25.57;;;12.50;91.70;;;;;;4998110;28;20480;-69
2021/09/03 03:51:52;;;;;;;30.17;28.10;;;12.50;91.70;;;;;;5001891;28;20491;-69
2021/09/03 03:54:19;;;;;;;28.47;26.60;;;12.50;91.40;;;;;;4999692;28;20452;-69
2021/09/03 03:56:47;;;;;;;28.87;26.93;;;12.40;91.40;;;;;;5003603;28;20468;-69
2021/09/03 03:59:14;;;;;;;29.33;27.33;;;12.40;91.50;;;;;;5004281;28;20480;-69
2021/09/03 04:01:41;;;;;;;28.73;26.83;;;12.40;91.70;;;;;;5009922;28;20555;-68
2021/09/03 04:04:08;;;;;;;29.20;27.30;;;12.40;91.70;;;;;;5003982;28;20464;-69
2021/09/03 04:06:35;;;;;;;29.20;27.00;;;12.40;91.70;;;;;;5007998;28;20465;-69
2021/09/03 04:09:02;;;;;;;29.03;27.23;;;12.40;91.40;;;;;;5008698;28;21172;-69
2021/09/03 04:11:29;;;;;;;29.30;27.40;;;12.40;91.10;;;;;;5004918;28;20460;-68
2021/09/03 04:13:57;;;;;;;27.67;25.83;;;12.40;91.00;;;;;;5003938;28;20488;-68
2021/09/03 04:16:24;;;;;;;29.50;27.57;;;12.40;91.20;;;;;;5000810;28;20457;-68
2021/09/03 04:18:51;;;;;;;31.10;28.97;;;12.40;91.30;;;;;;5001318;28;20476;-68
2021/09/03 04:21:17;;;;;;;30.40;28.10;;;12.40;91.30;;;;;;5005352;28;20467;-67
2021/09/03 04:23:44;;;;;;;32.70;30.57;;;12.30;91.30;;;;;;5000791;28;20462;-67
2021/09/03 04:26:11;;;;;;;31.23;29.17;;;12.30;91.40;;;;;;5004726;28;20460;-68
2021/09/03 04:28:38;;;;;;;29.23;27.23;;;12.30;91.60;;;;;;5002192;28;20465;-68
2021/09/03 04:31:06;;;;;;;33.23;30.87;;;12.20;91.80;;;;;;5006361;28;20977;-68
2021/09/03 04:33:33;;;;;;;29.83;27.60;;;12.20;92.00;;;;;;5010775;28;20459;-68
2021/09/03 04:36:00;;;;;;;28.67;26.87;;;12.20;91.60;;;;;;5008363;28;20552;-68
2021/09/03 04:38:28;;;;;;;28.83;26.83;;;12.20;91.40;;;;;;5001922;28;20563;-69
2021/09/03 04:40:55;;;;;;;30.10;27.90;;;12.20;91.30;;;;;;5010630;28;20467;-69
2021/09/03 04:43:22;;;;;;;30.30;28.40;;;12.10;91.50;;;;;;4997882;28;20457;-68
2021/09/03 04:45:49;;;;;;;28.70;26.60;;;12.10;91.70;;;;;;5001382;28;20964;-68
2021/09/03 04:48:18;;;;;;;29.87;27.67;;;12.10;91.80;;;;;;4998119;28;20500;-68
2021/09/03 04:50:45;;;;;;;32.00;29.60;;;12.10;92.10;;;;;;5006129;28;20464;-68
2021/09/03 04:53:11;;;;;;;28.37;26.47;;;12.10;92.10;;;;;;5004803;28;21062;-68
2021/09/03 04:55:39;;;;;;;31.40;29.30;;;12.10;92.10;;;;;;5011570;28;20456;-68
2021/09/03 04:58:05;;;;;;;29.30;27.30;;;12.20;91.70;;;;;;5007368;28;20479;-68
2021/09/03 05:00:32;;;;;;;29.73;27.73;;;12.20;91.50;;;;;;5005766;28;20465;-69
2021/09/03 05:02:59;;;;;;;30.30;28.40;;;12.20;91.30;;;;;;5005268;28;20449;-68
2021/09/03 05:05:28;;;;;;;32.40;30.03;;;12.20;91.50;;;;;;5010631;28;20654;-68
2021/09/03 05:07:54;;;;;;;29.63;27.60;;;12.20;91.50;;;;;;5008634;28;20826;-69
2021/09/03 05:10:21;;;;;;;27.60;25.77;;;12.20;91.50;;;;;;5006007;28;20457;-68
2021/09/03 05:12:48;;;;;;;28.70;26.60;;;12.30;91.50;;;;;;5007858;28;20539;-69
2021/09/03 05:15:18;;;;;;;29.97;27.93;;;12.30;91.40;;;;;;5007240;28;20473;-71
2021/09/03 05:17:48;;;;;;;30.90;29.00;;;12.30;91.30;;;;;;4998312;28;20454;-68
2021/09/03 05:20:15;;;;;;;29.67;27.60;;;12.30;91.20;;;;;;5002537;28;20543;-67
2021/09/03 05:22:44;;;;;;;29.70;27.70;;;12.40;90.90;;;;;;5002333;28;20496;-68
2021/09/03 05:25:13;;;;;;;29.27;26.87;;;12.40;90.40;;;;;;5005095;28;20553;-69
2021/09/03 05:27:40;;;;;;;28.40;26.60;;;12.50;90.10;;;;;;5002716;28;20870;-70
2021/09/03 05:30:08;;;;;;;27.97;26.13;;;12.50;90.00;;;;;;4998079;28;20456;-69
2021/09/03 05:32:36;;;;;;;30.13;28.13;;;12.50;90.10;;;;;;5008284;28;20552;-74
2021/09/03 05:35:02;;;;;;;28.70;26.80;;;12.60;90.10;;;;;;4996655;28;20459;-69
2021/09/03 05:37:29;;;;;;;30.30;28.43;;;12.60;90.10;;;;;;5009390;28;20555;-69
2021/09/03 05:40:00;;;;;;;29.33;27.23;;;12.70;90.00;;;;;;5000040;28;20487;-69
2021/09/03 05:42:27;;;;;;;30.40;28.50;;;12.70;89.90;;;;;;4996932;28;20483;-69
2021/09/03 05:44:54;;;;;;;29.80;27.57;;;12.80;89.80;;;;;;4997348;28;20529;-69
2021/09/03 05:47:21;;;;;;;32.00;29.60;;;12.90;89.40;;;;;;5000721;28;20465;-68
2021/09/03 05:49:47;;;;;;;29.37;27.47;;;13.00;89.30;;;;;;4994626;28;21079;-68
2021/09/03 05:52:14;;;;;;;29.53;27.57;;;13.00;89.10;;;;;;5004586;28;20463;-68
2021/09/03 05:54:42;;;;;;;31.63;29.37;;;13.00;89.20;;;;;;5008108;28;20453;-68
2021/09/03 05:57:10;;;;;;;29.93;27.67;;;13.00;89.40;;;;;;5000668;28;20476;-68
2021/09/03 05:59:37;;;;;;;30.27;28.40;;;13.10;89.50;;;;;;4997333;28;21015;-68
2021/09/03 06:02:04;;;;;;;29.30;27.40;;;13.10;89.70;;;;;;4999899;28;21264;-68
2021/09/03 06:04:31;;;;;;;31.23;29.13;;;13.20;89.70;;;;;;5001568;28;20449;-68
2021/09/03 06:06:58;;;;;;;29.60;27.50;;;13.30;89.30;;;;;;4998454;28;20449;-68
2021/09/03 06:09:25;;;;;;;30.73;28.73;;;13.40;89.10;;;;;;5001335;28;20557;-68
2021/09/03 06:11:52;;;;;;;32.30;30.00;;;13.40;89.10;;;;;;4998556;28;20472;-71
2021/09/03 06:14:22;;;;;;;30.00;27.90;;;13.50;88.70;;;;;;4998714;28;20454;-72
2021/09/03 06:16:49;;;;;;;31.40;29.37;;;13.60;88.60;;;;;;5007081;28;20453;-71
2021/09/03 06:19:17;;;;;;;30.70;28.70;;;13.80;88.50;;;;;;4998221;28;20485;-69
2021/09/03 06:21:44;;;;;;;30.37;28.20;;;13.90;88.40;;;;;;4994684;28;20507;-69
2021/09/03 06:26:52;;;;;;;31.10;29.10;;;14.10;88.60;;;;;;5001037;28;20444;-70
2021/09/03 06:32:01;;;;;;;32.03;30.03;;;14.20;88.20;;;;;;4996843;28;20448;-71
2021/09/03 06:34:28;;;;;;;29.27;27.33;;;14.30;87.90;;;;;;5003827;28;20456;-71
2021/09/03 06:36:55;;;;;;;32.10;29.20;;;14.40;87.70;;;;;;5006661;28;21008;-71
2021/09/03 06:39:21;;;;;;;31.33;29.23;;;14.50;87.20;;;;;;5006473;28;20485;-70
2021/09/03 06:41:48;;;;;;;31.43;29.23;;;14.50;87.10;;;;;;5005766;28;20571;-70
2021/09/03 06:44:15;;;;;;;34.10;31.70;;;14.60;86.90;;;;;;5002175;28;20464;-70
2021/09/03 06:46:42;;;;;;;32.53;30.00;;;14.70;86.60;;;;;;5002888;28;20469;-71
2021/09/03 06:49:10;;;;;;;31.77;29.40;;;14.80;86.30;;;;;;4998215;28;20603;-70
2021/09/03 06:51:37;;;;;;;30.77;28.63;;;14.90;86.20;;;;;;4994286;28;20463;-70
2021/09/03 06:54:04;;;;;;;32.40;30.30;;;15.00;85.90;;;;;;4991379;28;20464;-71
2021/09/03 06:56:31;;;;;;;31.13;29.00;;;15.10;85.60;;;;;;5006647;28;20461;-70
2021/09/03 06:59:00;;;;;;;33.60;31.20;;;15.30;85.40;;;;;;5004165;28;20487;-71
2021/09/03 07:01:27;;;;;;;33.30;30.60;;;15.30;85.00;;;;;;4995983;28;20473;-70
2021/09/03 07:03:53;;;;;;;33.07;30.67;;;15.40;84.90;;;;;;4995776;28;20465;-72
2021/09/03 07:06:22;;;;;;;32.13;29.87;;;15.50;84.40;;;;;;4995776;28;20462;-68
2021/09/03 07:08:49;;;;;;;33.30;30.70;;;15.60;84.20;;;;;;4996179;28;20570;-69
2021/09/03 07:11:16;;;;;;;33.23;30.87;;;15.70;84.10;;;;;;4998281;28;20819;-69
2021/09/03 07:13:42;;;;;;;31.87;29.37;;;15.80;83.70;;;;;;5000969;28;20461;-69
2021/09/03 07:16:10;;;;;;;32.40;29.90;;;16.00;83.40;;;;;;5005187;28;21021;-69
2021/09/03 07:18:37;;;;;;;33.33;31.13;;;16.10;83.00;;;;;;4995971;28;20491;-69
2021/09/03 07:21:04;;;;;;;33.07;30.67;;;16.20;82.60;;;;;;4990292;28;20486;-69
2021/09/03 07:23:32;;;;;;;32.77;30.53;;;16.30;82.20;;;;;;4999441;28;20460;-72
2021/09/03 07:26:01;;;;;;;34.30;32.00;;;16.40;81.80;;;;;;4991349;28;20569;-74
2021/09/03 07:28:29;;;;;;;31.50;29.40;;;16.50;81.50;;;;;;4994687;28;20978;-70
2021/09/03 07:30:57;;;;;;;32.27;30.00;;;16.60;81.20;;;;;;4997437;28;20475;-69
2021/09/03 07:33:24;;;;;;;34.70;32.50;;;16.80;80.40;;;;;;4995912;28;20453;-69
2021/09/03 07:35:53;;;;;;;33.13;31.03;;;17.00;79.90;;;;;;4996328;28;20458;-69
2021/09/03 07:38:20;;;;;;;31.63;29.33;;;17.10;79.40;;;;;;5006639;28;20507;-69
2021/09/03 07:40:49;;;;;;;36.00;32.70;;;17.20;78.90;;;;;;4998557;28;20494;-68
2021/09/03 07:43:16;;;;;;;30.67;28.47;;;17.40;78.20;;;;;;4988824;28;20462;-69
2021/09/03 07:45:44;;;;;;;35.13;32.73;;;17.40;77.80;;;;;;4997268;28;20969;-69
2021/09/03 07:48:11;;;;;;;34.50;31.47;;;17.50;77.70;;;;;;4993776;28;20924;-68
2021/09/03 07:50:38;;;;;;;34.00;31.23;;;17.70;77.40;;;;;;4995872;28;20514;-68
2021/09/03 07:53:06;;;;;;;33.30;31.10;;;17.80;77.00;;;;;;4999117;28;20453;-68
2021/09/03 07:55:34;;;;;;;32.17;29.73;;;17.80;76.60;;;;;;4998045;28;20998;-67
2021/09/03 07:58:05;;;;;;;32.53;30.43;;;17.90;76.20;;;;;;4998053;28;20483;-67
2021/09/03 08:00:33;;;;;;;33.53;31.23;;;17.90;75.40;;;;;;4996000;28;20474;-67
2021/09/03 08:03:00;;;;;;;33.93;31.73;;;18.10;75.00;;;;;;5002898;28;20468;-69
2021/09/03 08:05:27;;;;;;;35.00;32.60;;;18.20;74.70;;;;;;5002340;28;20551;-70
2021/09/03 08:07:54;;;;;;;33.60;31.40;;;18.20;74.50;;;;;;5000697;28;20798;-70
2021/09/03 08:10:21;;;;;;;34.80;32.40;;;18.20;74.30;;;;;;4999515;28;20828;-69
2021/09/03 08:12:48;;;;;;;32.47;30.33;;;18.30;74.10;;;;;;5003098;28;20815;-69
2021/09/03 08:15:16;;;;;;;34.13;31.90;;;18.40;74.30;;;;;;4996330;28;20468;-70
2021/09/03 08:17:43;;;;;;;34.40;32.10;;;18.60;73.60;;;;;;4991157;28;21199;-70
2021/09/03 08:20:14;;;;;;;33.97;31.57;;;18.70;73.30;;;;;;4993435;28;20477;-69
2021/09/03 08:22:42;;;;;;;33.73;31.33;;;18.70;73.10;;;;;;4998113;28;20487;-69
2021/09/03 08:25:10;;;;;;;34.20;32.00;;;18.70;72.90;;;;;;4992361;28;21022;-69
2021/09/03 08:27:37;;;;;;;34.00;31.50;;;18.60;73.40;;;;;;5004478;28;20461;-70
2021/09/03 08:30:05;;;;;;;34.20;31.87;;;18.60;73.70;;;;;;4995063;28;20497;-70
2021/09/03 08:32:33;;;;;;;33.60;30.40;;;18.70;73.70;;;;;;5003522;28;20463;-69
2021/09/03 08:35:00;;;;;;;36.70;34.20;;;18.80;73.20;;;;;;4995758;28;20555;-70
2021/09/03 08:37:27;;;;;;;34.23;31.93;;;18.80;73.30;;;;;;4992693;28;21004;-70
2021/09/03 08:39:54;;;;;;;34.93;32.50;;;18.80;73.30;;;;;;4990129;28;20484;-73
2021/09/03 08:42:22;;;;;;;34.97;32.23;;;18.90;73.20;;;;;;4993277;28;21171;-72
2021/09/03 08:44:51;;;;;;;33.60;31.17;;;19.00;72.70;;;;;;4995206;28;20991;-69
2021/09/03 08:47:20;;;;;;;34.30;31.80;;;19.10;72.30;;;;;;5000281;28;20954;-69
2021/09/03 08:49:50;;;;;;;32.87;30.47;;;19.10;72.50;;;;;;5006373;28;20832;-70
2021/09/03 08:52:17;;;;;;;35.30;32.60;;;19.20;72.60;;;;;;5004024;28;20463;-70
2021/09/03 08:54:44;;;;;;;35.30;32.80;;;19.20;72.40;;;;;;5008671;28;20457;-69
2021/09/03 08:57:14;;;;;;;33.33;30.67;;;19.20;72.60;;;;;;5000124;28;20523;-69
2021/09/03 08:59:41;;;;;;;34.60;31.70;;;19.30;72.80;;;;;;5007491;28;20472;-69
2021/09/03 09:02:15;;;;;;;34.60;32.30;;;19.40;72.60;;;;;;5002334;28;20457;-68
2021/09/03 09:04:44;;;;;;;34.83;31.43;;;19.50;71.80;;;;;;5006715;28;20456;-69
2021/09/03 09:07:13;;;;;;;34.37;31.33;;;19.60;71.50;;;;;;4997048;28;20464;-70
2021/09/03 09:09:42;;;;;;;33.83;31.30;;;19.60;71.80;;;;;;4994131;28;20480;-69
2021/09/03 09:12:12;;;;;;;32.50;30.30;;;19.70;71.90;;;;;;5000154;28;20572;-70
2021/09/03 09:15:03;;;;;;;33.57;31.30;;;19.80;71.40;;;;;;5006045;28;20943;-70
2021/09/03 09:17:31;;;;;;;35.23;32.80;;;19.80;70.90;;;;;;4998382;28;20477;-70
2021/09/03 09:19:59;;;;;;;36.33;33.73;;;19.80;70.50;;;;;;5001069;28;20514;-69
2021/09/03 09:22:27;;;;;;;33.57;31.40;;;19.90;70.20;;;;;;4992794;28;20564;-69
2021/09/03 09:25:17;;;;;;;35.97;33.20;;;20.00;69.90;;;;;;4996261;28;20471;-69
2021/09/03 09:27:44;;;;;;;38.67;34.93;;;19.90;70.00;;;;;;4993599;28;20891;-69
2021/09/03 09:30:20;;;;;;;35.97;33.30;;;19.80;70.10;;;;;;5000190;28;20457;-69
2021/09/03 09:33:15;;;;;;;35.67;33.27;;;19.70;70.40;;;;;;5002339;28;21025;-68
2021/09/03 09:35:50;;;;;;;33.20;30.80;;;19.80;70.00;;;;;;4994456;28;20531;-70
2021/09/03 09:38:22;;;;;;;33.60;31.40;;;19.90;69.70;;;;;;4990117;28;20491;-68
2021/09/03 09:40:54;;;;;;;34.07;31.77;;;19.90;69.30;;;;;;4993577;28;20495;-71
2021/09/03 09:43:43;;;;;;;34.33;32.13;;;20.00;69.60;;;;;;4995438;28;21204;-69
2021/09/03 09:46:21;;;;;;;35.43;33.17;;;19.80;69.80;;;;;;4998779;28;20465;-68
2021/09/03 09:49:02;;;;;;;32.73;30.53;;;19.90;70.10;;;;;;4996042;28;20469;-72
2021/09/03 09:51:36;;;;;;;33.40;31.30;;;19.90;69.60;;;;;;4992719;28;20453;-68
2021/09/03 09:54:09;;;;;;;34.17;31.50;;;20.00;69.90;;;;;;5001857;28;20457;-68
2021/09/03 09:56:38;;;;;;;33.13;30.93;;;20.30;69.50;;;;;;4990547;28;20466;-68
2021/09/03 09:59:07;;;;;;;34.57;32.43;;;20.40;69.20;;;;;;4999014;28;21047;-68
2021/09/03 10:01:37;;;;;;;35.60;33.30;;;20.60;68.70;;;;;;5001831;28;21006;-69
2021/09/03 10:04:07;;;;;;;36.00;33.80;;;20.70;67.90;;;;;;5003413;28;20453;-69
2021/09/03 10:06:36;;;;;;;35.83;33.40;;;20.70;68.10;;;;;;4998348;28;20559;-68
2021/09/03 10:09:07;;;;;;;33.17;30.77;;;20.70;68.20;;;;;;4996615;28;20823;-69
2021/09/03 10:11:35;;;;;;;35.20;32.93;;;20.70;68.30;;;;;;5005702;28;20468;-69
2021/09/03 10:14:05;;;;;;;34.70;32.50;;;20.80;68.80;;;;;;4994427;28;20465;-69
2021/09/03 10:16:32;;;;;;;37.03;34.57;;;20.90;69.00;;;;;;4996513;28;20459;-68
2021/09/03 10:19:01;;;;;;;36.20;33.73;;;21.10;67.90;;;;;;4989872;28;20477;-69
2021/09/03 10:21:30;;;;;;;34.87;32.40;;;21.10;67.90;;;;;;4995241;28;20494;-68
2021/09/03 10:24:05;;;;;;;34.87;32.27;;;21.20;68.10;;;;;;5001494;28;20472;-69
2021/09/03 10:26:34;;;;;;;33.50;31.40;;;21.30;68.20;;;;;;4995590;28;20478;-69
2021/09/03 10:29:26;;;;;;;34.90;32.80;;;21.50;67.70;;;;;;5003737;28;20473;-69
2021/09/03 10:32:14;;;;;;;34.47;32.20;;;21.50;67.00;;;;;;4994127;28;20461;-69
2021/09/03 10:35:00;;;;;;;34.43;32.07;;;21.50;67.20;;;;;;5000072;28;20982;-69
2021/09/03 10:37:37;;;;;;;33.10;30.67;;;21.60;67.40;;;;;;4995482;28;20453;-69
2021/09/03 10:40:21;;;;;;;34.23;32.13;;;21.50;66.80;;;;;;5001117;28;20498;-69
2021/09/03 10:42:55;;;;;;;31.63;29.63;;;21.50;67.10;;;;;;5001907;28;21180;-69
2021/09/03 10:45:42;;;;;;;31.60;29.48;;;21.40;67.00;;;;;;4994283;28;20468;-69
2021/09/03 10:48:15;;;;;;;33.10;31.07;;;21.80;67.00;;;;;;4996691;28;20222;-70
2021/09/03 10:50:50;;;;;;;33.13;31.03;;;21.90;66.50;;;;;;5006866;28;20982;-70
2021/09/03 10:53:22;;;;;;;38.23;35.93;;;21.80;66.30;;;;;;4998066;28;20995;-70
2021/09/03 10:56:14;;;;;;;35.33;33.03;;;21.90;66.20;;;;;;4999903;28;20512;-69
2021/09/03 10:58:58;;;;;;;37.00;34.47;;;21.90;66.20;;;;;;4991944;28;20477;-69
2021/09/03 11:01:51;;;;;;;36.33;34.03;;;21.90;67.40;;;;;;4989655;28;20474;-70
2021/09/03 11:04:21;;;;;;;35.77;33.43;;;22.10;66.60;;;;;;4998374;28;20457;-70
2021/09/03 11:07:09;;;;;;;40.47;37.60;;;22.30;67.00;;;;;;4994639;28;20547;-70
2021/09/03 11:09:36;;;;;;;36.30;34.00;;;22.50;66.10;;;;;;4997462;28;20476;-70
2021/09/03 11:12:10;;;;;;;37.20;34.40;;;22.60;66.10;;;;;;5000265;28;20503;-71
2021/09/03 11:14:40;;;;;;;34.33;31.83;;;22.60;65.60;;;;;;4995225;28;21106;-69
2021/09/03 11:17:12;;;;;;;34.17;31.97;;;22.70;65.50;;;;;;4993048;28;20461;-70
2021/09/03 11:19:41;;;;;;;35.07;32.67;;;22.70;64.70;;;;;;4989493;28;20477;-70
2021/09/03 11:22:10;;;;;;;34.00;31.87;;;22.70;64.50;;;;;;5005414;28;20487;-71
2021/09/03 11:24:39;;;;;;;34.17;31.87;;;22.70;64.60;;;;;;4998397;28;20564;-71
2021/09/03 11:27:09;;;;;;;32.80;30.40;;;22.80;64.60;;;;;;4998398;28;20456;-71
2021/09/03 11:29:43;;;;;;;34.80;32.50;;;22.90;64.30;;;;;;4998337;28;20556;-71
2021/09/03 11:32:12;;;;;;;33.20;31.10;;;22.90;63.90;;;;;;5000166;28;20475;-70
2021/09/03 11:34:59;;;;;;;33.00;30.80;;;23.00;63.80;;;;;;5006963;28;20465;-71
2021/09/03 11:37:35;;;;;;;33.93;31.40;;;23.10;63.50;;;;;;5001877;28;20486;-71
2021/09/03 11:40:06;;;;;;;36.80;34.10;;;23.30;63.50;;;;;;4998990;28;20575;-71
2021/09/03 11:42:35;;;;;;;33.80;31.60;;;23.40;63.30;;;;;;4997109;28;20483;-71
2021/09/03 11:45:05;;;;;;;36.10;33.70;;;23.40;62.60;;;;;;4993951;28;21132;-70
2021/09/03 11:47:39;;;;;;;37.87;35.30;;;23.60;62.40;;;;;;4996210;28;20908;-70
2021/09/03 11:50:10;;;;;;;38.63;36.20;;;23.70;62.00;;;;;;4996748;28;20459;-70
2021/09/03 11:52:37;;;;;;;34.50;32.30;;;23.70;62.10;;;;;;5000241;28;20545;-69
2021/09/03 11:55:08;;;;;;;33.90;31.80;;;23.80;62.40;;;;;;4996634;28;20467;-69
2021/09/03 11:58:07;;;;;;;36.70;34.23;;;23.80;62.00;;;;;;5006848;28;20471;-69
2021/09/03 12:00:37;;;;;;;35.27;33.17;;;23.90;61.60;;;;;;4976501;28;20485;-74
2021/09/03 12:03:08;;;;;;;34.43;32.23;;;23.90;61.10;;;;;;5001996;28;20461;-70
2021/09/03 12:05:35;;;;;;;33.77;31.47;;;24.00;60.60;;;;;;5002327;28;20458;-70
2021/09/03 12:08:12;;;;;;;35.60;33.10;;;24.00;60.70;;;;;;5002836;28;20568;-70
2021/09/03 12:10:52;;;;;;;36.73;34.33;;;24.20;60.60;;;;;;5008633;28;20538;-70
2021/09/03 12:13:25;;;;;;;38.37;35.50;;;24.20;60.40;;;;;;5007458;28;20982;-70
2021/09/03 12:15:59;;;;;;;34.60;32.30;;;24.30;60.30;;;;;;5003451;28;20465;-70
2021/09/03 12:18:28;;;;;;;35.63;33.33;;;24.30;60.60;;;;;;5002459;28;20472;-70
2021/09/03 12:20:59;;;;;;;32.93;30.73;;;24.40;60.50;;;;;;5009027;28;20488;-70
2021/09/03 12:23:31;;;;;;;35.27;33.07;;;24.50;59.30;;;;;;5001471;28;20460;-71
2021/09/03 12:26:06;;;;;;;34.60;32.33;;;24.50;59.70;;;;;;4996762;28;20462;-70
2021/09/03 12:28:34;;;;;;;34.40;32.40;;;24.60;59.70;;;;;;5007307;28;20572;-71
2021/09/03 12:31:10;;;;;;;36.70;34.40;;;24.70;59.20;;;;;;5002248;28;20548;-70
2021/09/03 12:33:45;;;;;;;37.60;35.10;;;24.80;59.00;;;;;;5000252;28;20466;-70
2021/09/03 12:36:12;;;;;;;36.53;34.03;;;24.80;58.90;;;;;;5000096;28;21258;-70
2021/09/03 12:38:42;;;;;;;35.53;32.77;;;24.80;58.50;;;;;;4999048;28;20483;-70
2021/09/03 12:41:13;;;;;;;36.50;34.10;;;24.90;58.00;;;;;;5003378;28;20555;-70
2021/09/03 12:43:42;;;;;;;37.77;35.00;;;25.00;57.40;;;;;;5008554;28;20464;-70